Facebook Twitter

Wetterstation Arriach

aktuelles Wetter
 
  Temperatur Wetter Luftdruck Wind
Mi, 00:00 Uhr 10.1 °C - 1023.8 hPa 0 km/h km/h
Di, 23:00 Uhr 10.6 °C - 1024 hPa 0 km/h km/h
Di, 22:00 Uhr 10.7 °C - 1024 hPa 0 km/h km/h
Di, 21:00 Uhr 11.2 °C - 1023.9 hPa 0 km/h km/h
Di, 20:00 Uhr 11.2 °C - 1024.2 hPa 0 km/h km/h
Di, 19:00 Uhr 12.3 °C - 1023.7 hPa 0 km/h km/h
Di, 18:00 Uhr 14.4 °C - 1022.9 hPa 0 km/h km/h
Di, 17:00 Uhr 16.2 °C - 1022.6 hPa 0 km/h km/h
Di, 16:00 Uhr 17.0 °C - 1022.7 hPa 0 km/h km/h
Di, 15:00 Uhr 17.7 °C - 1023 hPa 0 km/h km/h
Di, 14:00 Uhr 16.8 °C - 1024.2 hPa 0 km/h km/h
Di, 13:00 Uhr 15.6 °C - 1025.6 hPa 0 km/h km/h
Di, 12:00 Uhr 15.7 °C - 1026.1 hPa 0 km/h km/h
Di, 11:00 Uhr 14.1 °C - 1027.3 hPa 0 km/h km/h
Di, 10:00 Uhr 11.7 °C - 1028.5 hPa 0 km/h km/h
Di, 09:00 Uhr 8.9 °C - 1029.6 hPa 0 km/h km/h
Di, 08:00 Uhr 7.4 °C - 1030 hPa 0 km/h km/h
Di, 07:00 Uhr 8.0 °C - 1029.6 hPa 0 km/h km/h
Di, 06:00 Uhr 8.3 °C - 1029.5 hPa 0 km/h km/h
Di, 05:00 Uhr 8.8 °C - 1029.4 hPa 0 km/h km/h

Alle Zeitangaben in Ortszeit (MESZ)